YPADYWHA

Guest
Details From YPAD - Adelaide Intl
To YWHA - Whyalla
Flight Number -
Tags generated
Created
Modified
Stats Distance 126 nm / 234 km
Max Altitude 18,000 ft / 5,486 m
Waypoints 5
Social Downloads 1
Likes 0
Share VATSIM

Download

Looking for another format? Having issues loading an existing format? Contact us
Advertisement - Login to hide

Notes

Basic altitude profile: - Ascent Rate: 2500ft/min - Ascent Speed: 250kts - Cruise Altitude: 35000ft - Cruise Speed: 420kts - Descent Rate: 1500ft/min - Descent Speed: 250kts Options: - Use NATs: yes - Use PACOTS: yes - Use low airways: yes - Use high airways: yes

Route

YPAD AD H84 WHA YWHA

ID Type Via Altitude Latitude Longitude Leg Dist Tot Dist Heading (true) Name
O YPAD APT - 0 ft / 0 m -34.94744˚ 138.52985˚ - 0 nm - Adelaide Intl
AD VOR - 0 ft / 0 m -34.94695˚ 138.52444˚ 0 nm 0 nm 276° / 276° ADELAIDE VOR-DME
MARGO FIX H84 (AWY-LO) 18,000 ft / 5,486 m -34.41389˚ 138.03861˚ 40 nm 40 nm 323° / 323° -
WHA NDB H84 (AWY-LO) 18,000 ft / 5,486 m -33.05806˚ 137.52417˚ 85 nm 125 nm 342° / 343° WHYALLA NDB
O YWHA APT - 0 ft / 0 m -33.05716˚ 137.51587˚ 0 nm 126 nm 277° / 277° Whyalla

Altitude Profile

Advertisement - Login to hide

YPAD

Details ICAO YPAD (ADL)
Name Adelaide Intl
Region Australia
Timezone Australia/Adelaide (UTC+10.5)
Stats Elevation 20 ft / 6 m (AMSL)
Location -34.947439° 138.529850°
Runways 2
Magnetic Variation 7.927° E

METAR

YPAD 120400Z 30008KT CAVOK 36/05 Q1011 NOSIG

Decode

TAF

TAF YPAD 112313Z 1200/1306 36008KT CAVOK FM120200 24010KT CAVOK FM121100 04012KT CAVOK FM122300 36014KT CAVOK FM130200 23012KT CAVOK

Decode

Departure Runways

ID Width Length Bearing (true) Bearing (mag) Surface Threshold Offset Overrun Length
05 151 ft / 46 m 10,173 ft / 3,101 m 50.14° 42.21° Asphalt 518 ft / 158 m 0 ft / 0 m
12 151 ft / 46 m 5,414 ft / 1,650 m 123.61° 115.68° Asphalt 0 ft / 0 m 0 ft / 0 m
23 151 ft / 46 m 10,173 ft / 3,101 m 230.13° 222.20° Asphalt 0 ft / 0 m 203 ft / 62 m
30 151 ft / 46 m 5,414 ft / 1,650 m 303.60° 295.67° Asphalt 0 ft / 0 m 0 ft / 0 m

YWHA

Details ICAO YWHA (WYA)
Name Whyalla
Region Australia
Timezone Australia/Adelaide (UTC+10.5)
Stats Elevation 41 ft / 12 m (AMSL)
Location -33.057162° 137.515871°
Runways 2
Magnetic Variation 7.131° E

METAR

YWHA 120400Z AUTO 09014KT 9999 // NCD 36/06 Q1010

Decode

TAF

Not found

Destination Runways

ID Width Length Bearing (true) Bearing (mag) Surface Threshold Offset Overrun Length
05 164 ft / 50 m 4,659 ft / 1,420 m 54.36° 47.23° Dirt 0 ft / 0 m 0 ft / 0 m
17 164 ft / 50 m 5,540 ft / 1,689 m 174.30° 167.17° Asphalt 0 ft / 0 m 0 ft / 0 m
23 164 ft / 50 m 4,659 ft / 1,420 m 234.36° 227.23° Dirt 0 ft / 0 m 0 ft / 0 m
35 164 ft / 50 m 5,540 ft / 1,689 m 354.30° 347.17° Asphalt 0 ft / 0 m 0 ft / 0 m

Popular Alternatives